Time;durP1;ratioP1;P1;durP2;ratioP2;P2;SDS_P1;SDS_P2;PMS_P1;PMS_P2;Temp;Humidity;BMP_temperature;BMP_pressure;BME280_temperature;BME280_humidity;BME280_pressure;Samples;Min_cycle;Max_cycle;Signal;HPM_P1;HPM_P2
2022/02/12 00:00:31;;;;;;;9.03;5.03;;;-0.10;96.30;;;;;;5053880;28;20764;-75
2022/02/12 00:02:57;;;;;;;5.93;4.47;;;-0.10;96.30;;;;;;5044106;28;20411;-75
2022/02/12 00:05:25;;;;;;;13.47;4.80;;;-0.10;96.30;;;;;;5047885;28;20172;-75
2022/02/12 00:07:55;;;;;;;8.10;4.03;;;-0.10;96.30;;;;;;5042506;28;20179;-76
2022/02/12 00:10:22;;;;;;;12.60;4.40;;;-0.10;96.30;;;;;;5044108;28;20414;-75
2022/02/12 00:12:48;;;;;;;7.67;4.43;;;-0.10;96.30;;;;;;5047802;28;20434;-75
2022/02/12 00:15:15;;;;;;;5.33;3.77;;;-0.10;96.30;;;;;;5047273;28;20747;-75
2022/02/12 00:17:41;;;;;;;6.97;4.30;;;-0.10;96.30;;;;;;5045723;28;20915;-75
2022/02/12 00:20:08;;;;;;;7.13;3.23;;;-0.10;96.30;;;;;;5049858;28;20952;-75
2022/02/12 00:22:33;;;;;;;5.93;3.27;;;-0.10;96.30;;;;;;5045580;28;20418;-75
2022/02/12 00:24:59;;;;;;;6.43;3.50;;;-0.20;96.30;;;;;;5046401;28;20459;-76
2022/02/12 00:27:24;;;;;;;16.47;2.80;;;-0.20;96.30;;;;;;5044296;28;20169;-75
2022/02/12 00:29:50;;;;;;;7.30;3.70;;;-0.20;96.30;;;;;;5047618;28;20196;-75
2022/02/12 00:32:15;;;;;;;4.97;2.57;;;-0.20;96.30;;;;;;5040904;28;20509;-76
2022/02/12 00:34:41;;;;;;;2.70;2.50;;;-0.20;96.30;;;;;;5039617;28;20204;-75
2022/02/12 00:37:07;;;;;;;6.87;2.93;;;-0.10;96.30;;;;;;5044101;28;20204;-75
2022/02/12 00:39:32;;;;;;;6.33;3.43;;;-0.10;96.30;;;;;;5041002;28;20626;-75
2022/02/12 00:41:58;;;;;;;5.30;2.33;;;-0.20;96.30;;;;;;5033190;28;20443;-75
2022/02/12 00:44:24;;;;;;;2.40;1.73;;;-0.20;96.30;;;;;;5015280;28;20640;-75
2022/02/12 00:46:50;;;;;;;7.63;2.07;;;-0.20;96.30;;;;;;5024922;28;20184;-75
2022/02/12 00:49:16;;;;;;;4.63;2.27;;;-0.20;96.30;;;;;;5018239;28;20203;-77
2022/02/12 00:51:41;;;;;;;4.07;1.97;;;-0.20;96.30;;;;;;5052899;28;20452;-77
2022/02/12 00:54:07;;;;;;;4.13;1.87;;;-0.20;96.30;;;;;;5052649;28;20222;-77
2022/02/12 00:56:33;;;;;;;3.97;1.83;;;-0.20;96.30;;;;;;5052102;28;20200;-77
2022/02/12 00:58:59;;;;;;;2.93;1.67;;;-0.20;96.30;;;;;;5052503;28;20188;-77
2022/02/12 05:00:15;;;;;;;3.90;3.20;;;-2.80;96.30;;;;;;6105459;23;20366;-79
2022/02/12 05:02:41;;;;;;;8.03;4.40;;;-2.90;96.30;;;;;;5026481;28;20435;-77
2022/02/12 05:05:08;;;;;;;12.30;3.43;;;-2.80;96.30;;;;;;5032418;28;20426;-76
2022/02/12 05:07:34;;;;;;;8.20;3.80;;;;;;;;;;5015326;28;20419;-76
2022/02/12 05:09:59;;;;;;;13.27;5.10;;;-2.70;96.30;;;;;;5015376;28;20940;-76
2022/02/12 05:12:25;;;;;;;9.50;4.10;;;-2.70;96.30;;;;;;5032820;28;20435;-76
2022/02/12 05:14:51;;;;;;;6.23;3.37;;;-2.70;96.30;;;;;;5032568;28;20184;-76
2022/02/12 05:17:17;;;;;;;8.63;3.17;;;-2.80;96.30;;;;;;5036125;28;20459;-76
2022/02/12 05:19:42;;;;;;;8.60;3.53;;;-2.80;96.30;;;;;;5034385;28;20419;-79
2022/02/12 06:45:54;;;;;;;8.83;5.70;;;-2.00;96.30;;;;;;5648933;23;20487;-80
2022/02/12 06:48:20;;;;;;;11.80;6.20;;;-1.40;96.30;;;;;;5000511;28;20469;-79
2022/02/12 06:50:46;;;;;;;8.43;5.63;;;-1.30;96.30;;;;;;5000857;28;20197;-80
2022/02/12 06:53:12;;;;;;;11.07;4.90;;;-0.50;96.30;;;;;;5001022;28;20264;-82
2022/02/12 06:55:37;;;;;;;10.10;5.33;;;0.20;96.30;;;;;;5000073;28;20547;-80
2022/02/12 06:58:03;;;;;;;8.20;4.70;;;0.80;96.30;;;;;;5001008;28;20173;-82
2022/02/12 07:00:30;;;;;;;11.33;5.17;;;1.70;96.30;;;;;;5000785;28;20177;-82
2022/02/12 07:02:55;;;;;;;8.43;4.50;;;1.80;96.30;;;;;;5018527;28;20636;-83
2022/02/12 07:05:22;;;;;;;9.30;4.70;;;2.30;96.30;;;;;;5017741;28;20424;-84
2022/02/12 07:07:49;;;;;;;11.63;6.23;;;3.10;96.30;;;;;;5017899;28;20169;-85
2022/02/12 07:10:16;;;;;;;6.47;4.70;;;3.60;96.30;;;;;;5000268;28;20458;-84
2022/02/12 07:12:42;;;;;;;9.33;5.50;;;3.70;96.30;;;;;;5017604;28;20938;-83
2022/02/12 07:15:08;;;;;;;7.77;5.10;;;3.20;96.30;;;;;;4995867;28;20639;-83
2022/02/12 07:17:39;;;;;;;10.03;5.00;;;2.60;96.30;;;;;;5016526;28;20455;-82
2022/02/12 07:20:05;;;;;;;10.80;6.00;;;1.80;96.30;;;;;;5017334;28;20414;-78
2022/02/12 07:22:31;;;;;;;16.80;7.27;;;0.30;96.30;;;;;;5014716;28;20486;-77
2022/02/12 07:24:56;;;;;;;12.87;6.00;;;0.30;96.30;;;;;;5016033;28;20439;-77
2022/02/12 07:27:22;;;;;;;14.20;7.20;;;-0.10;96.30;;;;;;5003460;28;20173;-77
2022/02/12 07:29:47;;;;;;;12.27;5.57;;;-0.20;96.30;;;;;;5002483;28;20188;-76
2022/02/12 07:32:13;;;;;;;11.40;6.30;;;-0.40;96.30;;;;;;5015331;28;20201;-79
2022/02/12 07:34:38;;;;;;;14.90;5.03;;;-0.70;96.30;;;;;;5029769;28;20538;-80
2022/02/12 07:37:04;;;;;;;10.87;3.93;;;-0.60;96.30;;;;;;5034450;28;20200;-77
2022/02/12 07:39:29;;;;;;;7.50;4.30;;;-0.90;96.30;;;;;;5017019;28;20176;-77
2022/02/12 07:41:55;;;;;;;6.47;3.50;;;-1.20;96.30;;;;;;5016742;28;20191;-78
2022/02/12 07:44:20;;;;;;;11.80;4.07;;;-1.20;96.30;;;;;;5016692;28;20168;-77
2022/02/12 07:46:47;;;;;;;11.30;6.93;;;-1.30;96.30;;;;;;5016713;28;20199;-78
2022/02/12 07:49:14;;;;;;;12.70;5.97;;;-1.20;96.30;;;;;;5015267;28;20177;-76
2022/02/12 07:51:40;;;;;;;15.10;6.63;;;-1.00;96.30;;;;;;5015393;28;20442;-79
2022/02/12 07:54:05;;;;;;;23.60;8.60;;;-1.00;96.30;;;;;;4996726;28;20412;-80
2022/02/12 07:56:31;;;;;;;16.30;8.20;;;-1.00;96.30;;;;;;4996324;28;20295;-77
2022/02/12 07:58:57;;;;;;;16.57;9.40;;;-0.90;96.30;;;;;;4996738;28;20213;-77
2022/02/12 08:01:23;;;;;;;16.83;8.53;;;-1.00;96.30;;;;;;4996149;28;20232;-76
2022/02/12 08:03:48;;;;;;;8.13;5.03;;;-1.00;96.30;;;;;;5013778;28;20173;-79
2022/02/12 08:08:58;;;;;;;6.67;5.43;;;-0.90;96.30;;;;;;5010273;28;20191;-77
2022/02/12 08:11:26;;;;;;;10.20;6.00;;;-0.90;96.30;;;;;;4996532;28;20519;-76
2022/02/12 08:13:52;;;;;;;7.77;5.97;;;-0.90;96.30;;;;;;4996591;28;20704;-77
2022/02/12 08:16:18;;;;;;;6.13;5.00;;;-0.90;96.30;;;;;;5013416;28;20462;-77
2022/02/12 08:18:44;;;;;;;12.77;6.20;;;-0.90;96.30;;;;;;5013923;28;20412;-77
2022/02/12 08:21:10;;;;;;;9.23;5.37;;;-0.90;96.30;;;;;;4996293;28;20439;-78
2022/02/12 08:23:36;;;;;;;8.30;4.70;;;-0.90;96.30;;;;;;5030996;28;20184;-76
2022/02/12 08:26:02;;;;;;;7.97;5.70;;;-0.90;96.30;;;;;;5026245;28;20473;-77
2022/02/12 08:28:27;;;;;;;11.17;5.33;;;-0.80;96.30;;;;;;5013720;28;20260;-77
2022/02/12 08:30:54;;;;;;;9.57;5.37;;;-0.80;96.30;;;;;;4996508;28;20832;-79
2022/02/12 08:33:20;;;;;;;7.80;4.90;;;-0.70;96.30;;;;;;4996110;28;20191;-79
2022/02/12 08:35:45;;;;;;;10.33;6.03;;;-0.60;96.30;;;;;;4989533;28;20829;-79
2022/02/12 08:38:11;;;;;;;9.33;5.60;;;-0.70;96.30;;;;;;4993791;28;20220;-79
2022/02/12 08:40:37;;;;;;;6.10;4.67;;;-0.60;96.30;;;;;;4993985;28;20196;-79
2022/02/12 08:43:03;;;;;;;8.47;5.20;;;-0.60;96.30;;;;;;4993877;28;20168;-78
2022/02/12 08:45:29;;;;;;;6.23;4.70;;;-0.60;96.30;;;;;;4993421;28;20428;-78
2022/02/12 08:47:54;;;;;;;11.50;5.73;;;-0.60;96.30;;;;;;5008633;28;20223;-78
2022/02/12 08:50:20;;;;;;;5.67;3.77;;;-0.60;96.30;;;;;;5013245;28;20173;-78
2022/02/12 08:52:46;;;;;;;7.80;4.00;;;-0.60;96.30;;;;;;5013366;28;20724;-79
2022/02/12 08:55:12;;;;;;;9.47;4.40;;;-0.60;96.30;;;;;;5012783;28;20168;-79
2022/02/12 08:57:38;;;;;;;3.97;2.80;;;-0.60;96.30;;;;;;5016615;28;20451;-79
2022/02/12 09:00:09;;;;;;;10.10;5.43;;;-0.60;96.30;;;;;;4999881;28;20423;-78
2022/02/12 09:02:35;;;;;;;9.13;3.43;;;-0.60;96.30;;;;;;5013019;28;20189;-79
2022/02/12 09:05:01;;;;;;;7.10;5.37;;;-0.60;96.30;;;;;;5012694;28;20816;-78
2022/02/12 09:07:27;;;;;;;5.20;2.73;;;-0.50;96.30;;;;;;5013066;28;20180;-77
2022/02/12 09:09:54;;;;;;;5.17;2.90;;;-0.50;96.30;;;;;;5013325;28;20999;-79
2022/02/12 09:12:20;;;;;;;8.20;3.83;;;-0.50;96.30;;;;;;4995288;28;20197;-79
2022/02/12 09:14:45;;;;;;;30.00;16.03;;;-0.50;96.30;;;;;;4981123;28;20798;-80
2022/02/12 09:17:11;;;;;;;7.07;4.17;;;-0.40;96.30;;;;;;4982121;28;20455;-80
2022/02/12 09:19:36;;;;;;;59.27;34.37;;;-0.30;96.30;;;;;;5014135;28;20693;-79
2022/02/12 09:22:02;;;;;;;47.77;24.73;;;-0.20;96.30;;;;;;5032413;28;20664;-79
2022/02/12 09:24:28;;;;;;;11.27;7.00;;;-0.20;96.30;;;;;;5007115;28;20263;-79
2022/02/12 09:26:53;;;;;;;4.90;3.57;;;-0.20;96.30;;;;;;5012720;28;20177;-79
2022/02/12 09:29:19;;;;;;;4.03;2.00;;;-0.20;96.30;;;;;;5018967;28;20262;-78
2022/02/12 09:31:45;;;;;;;6.97;4.53;;;;;;;;;;5010348;28;20611;-77
2022/02/12 09:34:10;;;;;;;42.03;22.97;;;0.00;96.30;;;;;;5024864;28;20190;-78
2022/02/12 09:36:37;;;;;;;5.10;3.30;;;0.00;96.30;;;;;;4998073;28;20200;-78
2022/02/12 09:39:03;;;;;;;3.60;2.30;;;0.00;96.30;;;;;;5010261;28;20629;-77
2022/02/12 09:41:29;;;;;;;3.13;1.83;;;0.10;96.30;;;;;;4994740;28;20451;-77
2022/02/12 09:43:55;;;;;;;2.17;1.70;;;0.10;96.30;;;;;;5012754;28;20251;-78
2022/02/12 09:46:46;;;;;;;2.80;1.70;;;0.20;96.30;;;;;;4986158;28;20198;-79
2022/02/12 09:49:12;;;;;;;6.10;2.97;;;0.20;96.30;;;;;;5000688;28;20422;-77
2022/02/12 09:51:40;;;;;;;6.57;2.20;;;0.30;96.30;;;;;;5012060;28;20854;-78
2022/02/12 09:54:05;;;;;;;3.87;2.30;;;0.40;96.30;;;;;;5012285;28;20419;-78
2022/02/12 09:56:33;;;;;;;6.53;3.87;;;0.40;96.30;;;;;;5011908;28;20469;-79
2022/02/12 09:58:58;;;;;;;7.47;4.47;;;0.50;96.30;;;;;;4994681;28;20641;-77
2022/02/12 10:01:24;;;;;;;17.60;10.47;;;0.60;96.30;;;;;;5012195;28;20436;-76
2022/02/12 10:03:49;;;;;;;12.47;6.53;;;0.70;96.30;;;;;;5031859;28;20558;-74
2022/02/12 10:06:15;;;;;;;15.60;8.07;;;0.80;96.30;;;;;;5031537;28;20247;-75
2022/02/12 10:08:46;;;;;;;3.00;2.10;;;1.00;96.30;;;;;;5031861;28;20180;-75
2022/02/12 10:11:16;;;;;;;2.50;1.80;;;1.20;96.30;;;;;;5031836;28;20188;-75
2022/02/12 10:13:42;;;;;;;6.10;3.10;;;1.30;96.30;;;;;;5031896;28;20411;-74
2022/02/12 10:16:07;;;;;;;4.77;3.60;;;1.40;96.30;;;;;;5031435;28;20454;-74
2022/02/12 10:18:36;;;;;;;1.70;1.23;;;1.40;96.30;;;;;;5031776;28;20667;-74
2022/02/12 10:21:03;;;;;;;7.10;4.10;;;1.50;96.30;;;;;;5031714;28;20246;-74
2022/02/12 10:23:30;;;;;;;4.83;2.30;;;1.60;96.30;;;;;;5031655;28;20514;-74
2022/02/12 10:26:02;;;;;;;3.50;1.90;;;1.80;96.30;;;;;;5031503;28;20749;-75
2022/02/12 10:28:32;;;;;;;3.87;2.30;;;1.80;96.30;;;;;;5031693;28;20765;-75
2022/02/12 10:30:59;;;;;;;11.23;2.50;;;2.10;96.30;;;;;;5031709;28;20446;-75
2022/02/12 10:33:27;;;;;;;6.00;2.00;;;2.80;96.30;;;;;;5014056;28;20752;-76
2022/02/12 10:36:01;;;;;;;5.93;2.00;;;3.00;96.30;;;;;;5024182;28;20463;-75
2022/02/12 10:38:29;;;;;;;13.53;7.43;;;3.50;96.30;;;;;;5012014;28;20435;-75
2022/02/12 10:41:08;;;;;;;18.93;11.50;;;4.30;96.30;;;;;;5011832;28;20438;-75
2022/02/12 10:43:34;;;;;;;3.17;1.77;;;4.40;96.30;;;;;;5011865;28;20407;-75
2022/02/12 10:46:02;;;;;;;3.27;2.10;;;5.30;96.30;;;;;;5011427;28;20464;-75
2022/02/12 10:48:30;;;;;;;3.60;1.47;;;5.20;96.30;;;;;;5013362;28;20828;-75
2022/02/12 10:51:04;;;;;;;3.23;1.37;;;5.60;96.30;;;;;;5015594;28;20439;-75
2022/02/12 10:53:30;;;;;;;3.97;2.07;;;5.90;96.30;;;;;;5015418;28;20422;-75
2022/02/12 10:56:03;;;;;;;1.63;1.30;;;6.40;96.30;;;;;;5015134;28;20463;-74
2022/02/12 10:58:29;;;;;;;3.20;1.30;;;6.30;96.30;;;;;;5015300;28;20695;-74
2022/02/12 11:00:55;;;;;;;2.90;1.77;;;6.10;96.30;;;;;;5015229;28;20435;-74
2022/02/12 11:03:21;;;;;;;2.13;1.40;;;5.90;96.30;;;;;;5015300;28;20187;-75
2022/02/12 11:05:52;;;;;;;5.43;1.70;;;6.00;96.30;;;;;;5015040;28;20411;-75
2022/02/12 11:08:25;;;;;;;3.17;1.47;;;5.20;96.30;;;;;;5015836;28;20439;-75
2022/02/12 11:10:51;;;;;;;3.43;1.90;;;5.30;96.30;;;;;;5015138;28;20530;-75
2022/02/12 11:13:20;;;;;;;1.70;1.30;;;5.00;96.30;;;;;;5015327;28;20506;-75
2022/02/12 11:15:46;;;;;;;2.13;1.10;;;5.60;96.30;;;;;;5015345;28;20204;-76
2022/02/12 11:18:17;;;;;;;1.93;1.27;;;5.80;96.30;;;;;;5015407;28;20416;-76
2022/02/12 11:23:18;;;;;;;5.53;1.53;;;6.10;96.30;;;;;;5194917;23;20486;-78
2022/02/12 11:25:45;;;;;;;4.60;1.40;;;5.70;96.30;;;;;;5013509;28;20428;-78
2022/02/12 11:28:12;;;;;;;3.47;1.77;;;5.00;96.30;;;;;;5014984;28;20169;-78
2022/02/12 11:30:38;;;;;;;2.10;1.40;;;5.40;96.30;;;;;;5014814;28;20423;-79
2022/02/12 11:33:21;;;;;;;2.40;1.30;;;5.70;96.30;;;;;;4997311;28;20424;-76
2022/02/12 11:36:11;;;;;;;2.90;1.10;;;6.10;96.30;;;;;;5014699;28;20444;-77
2022/02/12 11:38:40;;;;;;;2.23;0.93;;;5.90;96.30;;;;;;5014922;28;20439;-77
2022/02/12 11:41:25;;;;;;;5.17;1.90;;;5.80;96.30;;;;;;4997291;28;20899;-75
2022/02/12 11:43:51;;;;;;;1.57;1.20;;;5.30;96.30;;;;;;5014850;28;20497;-75
2022/02/12 11:46:51;;;;;;;3.53;1.47;;;5.30;96.30;;;;;;5014896;28;20452;-76
2022/02/12 11:49:34;;;;;;;3.30;1.87;;;5.00;96.30;;;;;;4997877;28;20761;-75
2022/02/12 11:52:05;;;;;;;4.70;1.90;;;5.00;96.30;;;;;;4997932;28;20947;-78
2022/02/12 11:54:49;;;;;;;3.00;1.50;;;5.30;96.30;;;;;;4997889;28;20470;-77
2022/02/12 11:57:41;;;;;;;2.43;1.03;;;5.50;96.30;;;;;;5015314;28;20502;-77
2022/02/12 12:00:06;;;;;;;2.20;1.30;;;5.80;96.30;;;;;;5007327;28;20439;-77
2022/02/12 12:02:42;;;;;;;1.80;1.17;;;5.30;96.30;;;;;;5015108;28;20428;-77
2022/02/12 12:05:25;;;;;;;6.60;1.50;;;5.40;96.30;;;;;;4997161;28;20211;-77
2022/02/12 12:08:00;;;;;;;1.60;0.97;;;5.70;96.30;;;;;;5014636;28;20447;-79
2022/02/12 12:10:26;;;;;;;3.00;1.47;;;5.40;96.30;;;;;;5014623;28;20846;-79
2022/02/12 12:12:53;;;;;;;4.17;2.30;;;5.30;96.30;;;;;;4996778;28;20783;-76
2022/02/12 12:15:26;;;;;;;4.13;1.70;;;5.10;96.30;;;;;;5013799;28;20423;-75
2022/02/12 12:17:56;;;;;;;1.30;1.10;;;5.10;96.30;;;;;;4996411;28;20428;-75
2022/02/12 12:20:32;;;;;;;4.33;1.87;;;4.70;96.30;;;;;;5013917;28;20963;-75
2022/02/12 12:23:01;;;;;;;4.43;1.33;;;5.30;96.30;;;;;;5014042;28;20942;-75
2022/02/12 12:25:27;;;;;;;1.50;1.00;;;5.30;96.30;;;;;;5013578;28;20931;-75
2022/02/12 12:27:52;;;;;;;2.97;1.40;;;5.50;96.30;;;;;;4996127;28;20416;-75
2022/02/12 12:33:03;;;;;;;3.93;1.97;;;5.60;96.30;;;;;;5013998;28;20160;-76
2022/02/12 12:35:28;;;;;;;3.30;1.67;;;5.50;96.30;;;;;;5013312;28;20416;-75
2022/02/12 12:37:56;;;;;;;3.50;1.77;;;5.10;96.30;;;;;;4996061;28;20536;-75
2022/02/12 12:40:30;;;;;;;2.67;1.70;;;5.40;96.30;;;;;;4995923;28;20165;-75
2022/02/12 12:43:07;;;;;;;2.80;1.43;;;5.30;96.30;;;;;;5013513;28;20460;-75
2022/02/12 12:45:45;;;;;;;2.00;1.10;;;5.20;96.30;;;;;;5013377;28;20614;-75
2022/02/12 12:48:11;;;;;;;4.83;1.30;;;5.30;96.30;;;;;;5013388;28;20396;-78
2022/02/12 12:50:40;;;;;;;3.70;1.30;;;5.40;96.30;;;;;;4995693;28;20450;-77
2022/02/12 12:53:12;;;;;;;1.63;1.23;;;5.30;96.30;;;;;;5013079;28;20461;-76
2022/02/12 12:55:43;;;;;;;3.43;1.40;;;5.40;96.30;;;;;;4995470;28;20404;-77
2022/02/12 12:58:16;;;;;;;1.90;1.40;;;5.00;96.30;;;;;;4995937;28;21178;-76
2022/02/12 13:00:42;;;;;;;3.80;2.30;;;4.90;96.30;;;;;;5013218;28;20506;-76
2022/02/12 13:03:08;;;;;;;6.80;3.43;;;4.80;96.30;;;;;;5013182;28;21021;-76
2022/02/12 13:05:34;;;;;;;2.90;1.90;;;4.50;96.30;;;;;;4995249;28;20219;-79
2022/02/12 13:08:05;;;;;;;2.13;1.50;;;4.10;96.30;;;;;;5013131;28;20260;-76
2022/02/12 13:10:32;;;;;;;4.80;2.17;;;4.10;96.30;;;;;;5012861;28;20403;-76
2022/02/12 13:13:13;;;;;;;3.53;1.50;;;4.20;96.30;;;;;;4994599;28;20770;-76
2022/02/12 13:15:40;;;;;;;3.17;1.80;;;4.50;96.30;;;;;;4995082;28;20474;-76
2022/02/12 13:18:07;;;;;;;1.73;1.30;;;4.40;96.30;;;;;;5012963;28;20796;-76
2022/02/12 13:20:33;;;;;;;3.80;1.73;;;4.30;96.30;;;;;;5012894;28;20444;-76
2022/02/12 13:23:16;;;;;;;2.70;1.60;;;4.30;96.30;;;;;;5012878;28;20827;-76
2022/02/12 13:25:43;;;;;;;4.60;2.20;;;4.40;96.30;;;;;;4995224;28;20507;-76
2022/02/12 13:28:10;;;;;;;4.00;2.30;;;4.50;96.30;;;;;;5012788;28;20470;-77
2022/02/12 13:30:37;;;;;;;6.80;2.47;;;4.20;96.30;;;;;;5012722;28;20427;-76
2022/02/12 13:33:05;;;;;;;4.00;1.97;;;4.30;96.30;;;;;;5012795;28;20447;-78
2022/02/12 13:35:39;;;;;;;7.90;2.47;;;4.30;96.30;;;;;;5012438;28;20454;-79
2022/02/12 13:38:05;;;;;;;8.07;2.20;;;4.40;96.30;;;;;;4995237;28;20412;-78
2022/02/12 13:40:36;;;;;;;3.47;2.10;;;4.10;96.30;;;;;;5012466;28;20430;-77
2022/02/12 13:43:10;;;;;;;2.90;2.50;;;4.40;96.30;;;;;;5012635;28;20907;-76
2022/02/12 13:45:38;;;;;;;7.93;3.97;;;4.40;96.30;;;;;;5012142;28;20467;-78
2022/02/12 13:48:08;;;;;;;4.87;3.23;;;4.40;96.30;;;;;;5012968;28;20408;-76
2022/02/12 13:50:36;;;;;;;7.27;3.03;;;3.90;96.30;;;;;;5012357;28;20438;-78
2022/02/12 13:53:04;;;;;;;3.70;2.47;;;4.10;96.30;;;;;;4996222;28;20804;-79
2022/02/12 13:55:55;;;;;;;4.63;2.67;;;3.60;96.30;;;;;;5007989;28;20411;-79
2022/02/12 13:58:20;;;;;;;2.97;2.30;;;3.40;96.30;;;;;;4988785;28;20425;-79
2022/02/12 14:00:49;;;;;;;3.90;2.13;;;3.70;96.30;;;;;;5026979;28;20545;-79
2022/02/12 14:03:32;;;;;;;2.20;2.00;;;3.90;96.30;;;;;;4994478;28;20181;-79
2022/02/12 14:05:59;;;;;;;8.43;2.40;;;4.00;96.30;;;;;;4994243;28;20945;-78
2022/02/12 14:08:24;;;;;;;5.73;3.53;;;4.30;96.30;;;;;;5012538;28;20412;-78
2022/02/12 14:10:50;;;;;;;6.53;2.50;;;4.20;96.30;;;;;;4994510;28;20938;-79
2022/02/12 14:13:16;;;;;;;2.97;2.67;;;4.20;96.30;;;;;;4993910;28;20275;-79
2022/02/12 14:15:42;;;;;;;3.73;2.47;;;;;;;;;;4993701;28;20502;-78
2022/02/12 14:18:08;;;;;;;4.27;2.17;;;3.90;96.30;;;;;;4994297;28;20179;-78
2022/02/12 14:20:34;;;;;;;3.37;2.60;;;3.80;96.30;;;;;;5011717;28;20251;-78
2022/02/12 14:22:59;;;;;;;4.67;2.77;;;4.10;96.30;;;;;;4993495;28;20246;-78
2022/02/12 14:25:25;;;;;;;4.43;2.50;;;4.20;96.30;;;;;;4997542;28;20172;-78
2022/02/12 14:27:51;;;;;;;5.00;2.80;;;4.00;96.30;;;;;;5015728;28;20550;-78
2022/02/12 14:30:16;;;;;;;4.50;2.63;;;4.10;96.30;;;;;;4998364;28;20185;-74
2022/02/12 14:32:42;;;;;;;4.67;3.27;;;;;;;;;;4998176;28;20173;-74
2022/02/12 14:35:08;;;;;;;7.20;2.77;;;3.60;96.30;;;;;;4997767;28;20651;-74
2022/02/12 14:37:33;;;;;;;3.37;2.27;;;3.60;96.30;;;;;;5015996;28;20795;-76
2022/02/12 14:39:59;;;;;;;9.53;4.77;;;3.60;96.30;;;;;;5016150;28;20520;-76
2022/02/12 14:42:25;;;;;;;8.53;5.67;;;3.50;96.30;;;;;;5015859;28;20197;-74
2022/02/12 14:44:50;;;;;;;4.53;3.30;;;3.30;96.30;;;;;;5015123;28;20173;-74
2022/02/12 14:47:16;;;;;;;5.77;3.20;;;3.10;96.30;;;;;;5015508;28;20169;-74
2022/02/12 14:49:42;;;;;;;3.50;3.10;;;2.90;96.30;;;;;;5015569;28;20267;-74
2022/02/12 14:52:09;;;;;;;6.17;3.47;;;2.80;96.30;;;;;;5015865;28;20268;-76
2022/02/12 14:54:35;;;;;;;5.93;3.43;;;2.80;96.30;;;;;;5025096;28;20458;-74
2022/02/12 14:57:01;;;;;;;5.83;5.23;;;2.80;96.30;;;;;;5015536;28;20457;-74
2022/02/12 14:59:27;;;;;;;8.73;4.83;;;2.70;96.30;;;;;;5015477;28;20870;-74
2022/02/12 15:01:52;;;;;;;3.90;3.50;;;2.80;96.30;;;;;;5031643;28;20435;-73
2022/02/12 15:04:18;;;;;;;5.90;4.40;;;2.80;96.30;;;;;;5025563;28;20207;-73
2022/02/12 15:06:43;;;;;;;7.07;3.70;;;2.80;96.30;;;;;;5016330;28;20528;-77
2022/02/12 15:09:09;;;;;;;5.03;3.50;;;2.80;96.30;;;;;;5011611;28;20173;-78
2022/02/12 15:11:35;;;;;;;6.90;3.80;;;2.70;96.30;;;;;;4997413;28;20243;-75
2022/02/12 15:14:04;;;;;;;4.80;4.00;;;2.70;96.30;;;;;;4997512;28;20204;-76
2022/02/12 15:16:30;;;;;;;4.17;3.37;;;2.40;96.30;;;;;;5014597;28;20207;-75
2022/02/12 15:18:55;;;;;;;7.03;3.80;;;2.40;96.30;;;;;;5015158;28;20408;-77
2022/02/12 15:21:21;;;;;;;3.53;2.93;;;2.30;96.30;;;;;;4997488;28;20435;-77
2022/02/12 15:23:47;;;;;;;5.77;3.57;;;2.30;96.30;;;;;;4997211;28;20260;-78
2022/02/12 15:26:12;;;;;;;4.57;4.00;;;2.20;96.30;;;;;;4996742;28;20293;-78
2022/02/12 15:28:38;;;;;;;4.70;3.30;;;2.20;96.30;;;;;;4997222;28;20331;-78
2022/02/12 15:31:06;;;;;;;5.60;4.40;;;2.20;96.30;;;;;;5014560;28;20653;-78
2022/02/12 15:33:33;;;;;;;5.93;3.73;;;2.10;96.30;;;;;;5014548;28;20261;-78
2022/02/12 15:35:59;;;;;;;7.43;4.00;;;2.00;96.30;;;;;;4995423;28;20939;-77
2022/02/12 15:38:27;;;;;;;5.40;4.30;;;1.80;96.30;;;;;;4997039;28;20415;-77
2022/02/12 15:40:54;;;;;;;7.20;5.00;;;1.60;96.30;;;;;;5013913;28;20439;-77
2022/02/12 15:43:19;;;;;;;8.30;4.70;;;1.60;96.30;;;;;;4996681;28;20474;-76
2022/02/12 15:45:45;;;;;;;9.17;7.90;;;1.60;96.30;;;;;;5013858;28;20794;-77
2022/02/12 15:48:10;;;;;;;82.77;44.87;;;1.50;96.30;;;;;;5012719;28;20181;-75
2022/02/12 15:50:36;;;;;;;21.97;13.67;;;1.50;96.30;;;;;;5002910;28;20550;-76
2022/02/12 15:53:02;;;;;;;5.07;3.70;;;1.40;96.30;;;;;;5005712;28;20260;-75
2022/02/12 15:55:31;;;;;;;7.80;4.70;;;1.30;96.30;;;;;;5013593;28;20450;-75
2022/02/12 15:57:59;;;;;;;6.10;5.40;;;1.30;96.30;;;;;;5014284;28;20691;-75
2022/02/12 16:00:24;;;;;;;6.73;5.47;;;1.20;96.30;;;;;;5014122;28;20405;-75
2022/02/12 16:02:50;;;;;;;14.03;8.63;;;1.10;96.30;;;;;;4996176;28;20419;-75
2022/02/12 16:05:16;;;;;;;11.43;7.90;;;1.10;96.30;;;;;;5016354;28;20229;-75
2022/02/12 16:07:41;;;;;;;8.93;5.87;;;0.90;96.30;;;;;;5017181;28;20583;-76
2022/02/12 16:10:07;;;;;;;10.73;7.20;;;0.90;96.30;;;;;;5019373;28;20426;-77
2022/02/12 16:12:33;;;;;;;14.87;8.33;;;0.90;96.30;;;;;;5013965;28;20197;-76
2022/02/12 16:14:59;;;;;;;8.77;5.53;;;0.80;96.30;;;;;;4995939;28;20177;-76
2022/02/12 16:17:24;;;;;;;7.90;4.90;;;0.70;96.30;;;;;;5015165;28;20596;-76
2022/02/12 16:19:52;;;;;;;10.07;4.90;;;0.70;96.30;;;;;;5016014;28;20176;-77
2022/02/12 16:22:17;;;;;;;8.10;6.13;;;0.50;96.30;;;;;;5033473;28;20280;-76
2022/02/12 16:24:43;;;;;;;10.03;6.33;;;0.40;96.30;;;;;;5015781;28;20970;-76
2022/02/12 16:27:08;;;;;;;9.07;6.50;;;0.40;96.30;;;;;;4996313;28;20268;-79
2022/02/12 16:29:34;;;;;;;26.20;18.33;;;0.40;96.30;;;;;;4996427;28;20567;-76
2022/02/12 16:32:00;;;;;;;14.97;11.90;;;0.30;96.30;;;;;;4996469;28;20201;-77
2022/02/12 16:34:26;;;;;;;26.40;18.70;;;0.20;96.30;;;;;;4994104;28;20424;-76
2022/02/12 16:36:52;;;;;;;72.67;43.33;;;0.10;96.30;;;;;;5013098;28;20463;-75
2022/02/12 16:39:19;;;;;;;17.40;12.37;;;0.10;96.30;;;;;;4996033;28;20414;-75
2022/02/12 16:41:46;;;;;;;13.27;5.90;;;0.10;96.30;;;;;;4996033;28;20219;-75
2022/02/12 16:44:12;;;;;;;35.67;21.10;;;0.30;96.30;;;;;;5013471;28;20502;-76
2022/02/12 16:46:37;;;;;;;21.27;10.50;;;0.30;96.30;;;;;;4994687;28;20496;-77
2022/02/12 16:49:03;;;;;;;32.70;16.83;;;0.40;96.30;;;;;;5012732;28;20181;-77
2022/02/12 16:51:28;;;;;;;9.60;6.77;;;0.40;96.30;;;;;;5012955;28;20189;-77
2022/02/12 16:53:54;;;;;;;15.03;10.03;;;0.40;96.30;;;;;;5012937;28;20173;-76
2022/02/12 16:56:19;;;;;;;13.73;9.57;;;;;;;;;;5018188;28;20574;-78
2022/02/12 16:58:46;;;;;;;7.17;5.37;;;0.50;96.30;;;;;;5032189;28;20691;-76
2022/02/12 17:01:12;;;;;;;17.50;8.90;;;0.50;96.30;;;;;;5021025;28;20431;-76
2022/02/12 17:03:37;;;;;;;21.00;12.83;;;0.50;96.30;;;;;;5014894;28;20422;-76
2022/02/12 17:06:03;;;;;;;30.73;19.10;;;0.50;96.30;;;;;;4994499;28;20823;-75
2022/02/12 17:08:28;;;;;;;12.93;8.07;;;0.50;96.30;;;;;;5009416;28;20236;-77
2022/02/12 17:10:54;;;;;;;10.73;5.37;;;0.50;96.30;;;;;;4994592;28;20208;-77
2022/02/12 17:13:20;;;;;;;14.50;9.07;;;;;;;;;;5005344;28;20181;-76
2022/02/12 17:15:49;;;;;;;25.13;15.47;;;0.40;96.30;;;;;;4975617;28;20185;-75
2022/02/12 17:18:18;;;;;;;20.53;13.97;;;0.40;96.30;;;;;;4976138;28;20553;-75
2022/02/12 17:20:44;;;;;;;38.13;23.40;;;0.50;96.30;;;;;;4993268;28;20560;-75
2022/02/12 17:23:09;;;;;;;19.40;11.73;;;0.40;96.30;;;;;;4993284;28;20441;-76
2022/02/12 17:25:35;;;;;;;12.80;9.23;;;0.40;96.30;;;;;;4975492;28;20646;-76
2022/02/12 17:28:00;;;;;;;74.10;39.07;;;0.40;96.30;;;;;;4993131;28;20641;-76
2022/02/12 17:30:28;;;;;;;75.63;42.73;;;0.30;96.30;;;;;;4975739;28;20417;-75
2022/02/12 17:32:54;;;;;;;32.30;14.90;;;0.30;96.30;;;;;;4993229;28;20252;-76
2022/02/12 17:35:20;;;;;;;16.47;10.83;;;0.30;96.30;;;;;;4995512;28;20491;-76
2022/02/12 17:37:45;;;;;;;11.77;7.27;;;0.30;96.30;;;;;;5012579;28;20517;-76
2022/02/12 17:40:13;;;;;;;16.23;8.93;;;0.30;96.30;;;;;;5012507;28;20173;-78
2022/02/12 17:42:39;;;;;;;6.57;4.80;;;0.30;96.30;;;;;;5012445;28;20192;-77
2022/02/12 17:45:05;;;;;;;7.13;5.50;;;0.30;96.30;;;;;;4994812;28;20415;-75
2022/02/12 17:47:31;;;;;;;7.60;6.03;;;0.40;96.30;;;;;;4994994;28;21201;-76
2022/02/12 17:49:56;;;;;;;5.87;4.40;;;0.50;96.30;;;;;;5010809;28;20455;-76
2022/02/12 17:52:22;;;;;;;7.80;4.90;;;0.50;96.30;;;;;;5013841;28;20212;-77
2022/02/12 17:54:47;;;;;;;6.83;5.27;;;;;;;;;;4997858;28;20184;-78
2022/02/12 17:57:14;;;;;;;8.27;5.77;;;0.40;96.30;;;;;;5012333;28;20315;-76
2022/02/12 17:59:41;;;;;;;7.17;5.73;;;0.30;96.30;;;;;;4984258;28;20276;-78
2022/02/12 18:02:06;;;;;;;9.17;5.30;;;0.30;96.30;;;;;;4990933;28;21027;-77
2022/02/12 18:04:32;;;;;;;9.00;4.70;;;0.20;96.30;;;;;;4996659;28;20428;-78
2022/02/12 18:06:57;;;;;;;7.43;4.40;;;0.30;96.30;;;;;;4994507;28;20233;-77
2022/02/12 18:09:41;;;;;;;12.00;7.97;;;0.30;96.30;;;;;;4994668;28;20201;-77
2022/02/12 18:12:10;;;;;;;9.50;7.23;;;0.30;96.30;;;;;;5008222;28;20193;-78
2022/02/12 18:14:36;;;;;;;11.63;5.30;;;0.40;96.30;;;;;;5010744;28;21971;-77
2022/02/12 18:17:03;;;;;;;7.47;5.67;;;0.50;96.30;;;;;;5011677;28;20462;-77
2022/02/12 18:19:28;;;;;;;9.10;4.83;;;0.50;96.30;;;;;;4995425;28;20446;-77
2022/02/12 18:21:56;;;;;;;4.70;3.50;;;0.50;96.30;;;;;;4995969;28;20534;-77
2022/02/12 18:24:22;;;;;;;6.63;3.50;;;0.50;96.30;;;;;;5014842;28;20711;-76